createdAt,value
2022-08-05T00:01:20.911Z,24.39
2022-08-05T00:04:13.538Z,24.35
2022-08-05T00:07:00.172Z,24.33
2022-08-05T00:10:06.310Z,24.26
2022-08-05T00:12:56.556Z,24.23
2022-08-05T00:15:55.250Z,24.13
2022-08-05T00:18:44.990Z,24.14
2022-08-05T00:21:31.266Z,24.16
2022-08-05T00:24:24.291Z,24.18
2022-08-05T00:27:14.074Z,24.17
2022-08-05T00:30:03.887Z,24.16
2022-08-05T00:32:49.912Z,24.03
2022-08-05T00:35:36.056Z,24.05
2022-08-05T00:38:34.121Z,24.04
2022-08-05T00:41:51.876Z,23.97
2022-08-05T00:44:37.462Z,23.81
2022-08-05T00:47:23.677Z,23.92
2022-08-05T00:50:10.621Z,23.89
2022-08-05T00:52:56.948Z,23.82
2022-08-05T00:55:43.783Z,23.77
2022-08-05T00:58:29.916Z,23.78
2022-08-05T01:01:15.899Z,23.79
2022-08-05T01:04:26.860Z,23.72
2022-08-05T01:07:15.624Z,23.71
2022-08-05T01:10:09.012Z,23.69
2022-08-05T01:13:12.802Z,23.69
2022-08-05T01:16:02.629Z,23.55
2022-08-05T01:18:56.474Z,23.67
2022-08-05T01:21:51.647Z,23.53
2022-08-05T01:24:50.542Z,23.43
2022-08-05T01:28:16.005Z,23.53
2022-08-05T01:31:10.250Z,23.43
2022-08-05T01:34:09.806Z,23.49
2022-08-05T01:37:24.721Z,23.37
2022-08-05T01:40:12.730Z,23.52
2022-08-05T01:43:01.239Z,23.47
2022-08-05T01:45:55.239Z,23.47
2022-08-05T01:48:44.918Z,23.48
2022-08-05T01:51:36.042Z,23.36
2022-08-05T01:54:25.661Z,23.46
2022-08-05T01:58:09.266Z,23.42
2022-08-05T02:00:21.171Z,23.44
2022-08-05T02:03:33.929Z,23.36
2022-08-05T02:06:36.980Z,23.48
2022-08-05T02:09:24.524Z,23.40
2022-08-05T02:12:36.752Z,23.44
2022-08-05T02:15:33.235Z,23.41
2022-08-05T02:18:35.225Z,23.37
2022-08-05T02:21:40.293Z,23.42
2022-08-05T02:24:36.964Z,23.37
2022-08-05T02:27:29.964Z,23.40
2022-08-05T02:30:51.898Z,23.25
2022-08-05T02:33:45.115Z,23.20
2022-08-05T02:36:36.362Z,23.24
2022-08-05T02:39:23.540Z,23.17
2022-08-05T02:42:10.430Z,23.11
2022-08-05T02:45:12.472Z,23.23
2022-08-05T02:48:11.553Z,23.11
2022-08-05T02:51:02.741Z,23.06
2022-08-05T02:53:49.454Z,22.99
2022-08-05T02:56:43.537Z,22.78
2022-08-05T02:59:47.878Z,22.86
2022-08-05T03:02:41.153Z,22.90
2022-08-05T03:06:56.561Z,22.88
2022-08-05T03:08:36.409Z,22.88
2022-08-05T03:11:55.420Z,22.89
2022-08-05T03:14:31.605Z,22.90
2022-08-05T03:17:17.678Z,22.87
2022-08-05T03:20:06.772Z,22.87
2022-08-05T03:22:57.050Z,22.85
2022-08-05T03:26:04.462Z,22.90
2022-08-05T03:28:50.385Z,22.90
2022-08-05T03:31:57.107Z,22.92
2022-08-05T03:34:50.502Z,22.95
2022-08-05T03:37:45.855Z,22.87
2022-08-05T03:40:32.900Z,22.83
2022-08-05T03:44:09.571Z,22.95
2022-08-05T03:46:26.803Z,22.94
2022-08-05T03:49:16.167Z,22.86
2022-08-05T03:52:37.936Z,22.90
2022-08-05T03:56:04.121Z,22.90
2022-08-05T03:58:29.050Z,22.95
2022-08-05T04:01:17.110Z,22.91
2022-08-05T04:04:09.781Z,22.94
2022-08-05T04:06:57.085Z,22.82
2022-08-05T04:09:53.034Z,22.92
2022-08-05T04:15:24.776Z,22.82
2022-08-05T04:18:20.638Z,22.87
2022-08-05T04:21:11.114Z,22.90
2022-08-05T04:24:05.323Z,22.95
2022-08-05T04:26:52.906Z,22.98
2022-08-05T04:29:38.747Z,22.87
2022-08-05T04:32:31.051Z,22.99
2022-08-05T04:35:19.888Z,22.97
2022-08-05T04:38:06.832Z,23.04
2022-08-05T04:40:52.945Z,23.03
2022-08-05T04:43:40.559Z,22.98
2022-08-05T04:46:32.794Z,23.09
2022-08-05T04:49:18.685Z,22.99
2022-08-05T04:52:10.802Z,23.04
2022-08-05T04:54:58.860Z,23.02
2022-08-05T04:57:47.782Z,23.10
2022-08-05T05:00:38.169Z,23.14
2022-08-05T05:03:24.108Z,23.17
2022-08-05T05:06:36.191Z,23.09
2022-08-05T05:09:19.837Z,23.18
2022-08-05T05:12:08.598Z,23.23
2022-08-05T05:14:54.757Z,23.27
2022-08-05T05:17:56.929Z,23.28
2022-08-05T05:20:46.046Z,23.33
2022-08-05T05:24:01.995Z,23.34
2022-08-05T05:26:37.978Z,23.31
2022-08-05T05:30:03.302Z,23.46
2022-08-05T05:32:31.906Z,23.45
2022-08-05T05:35:20.001Z,23.41
2022-08-05T05:38:09.199Z,23.52
2022-08-05T05:40:58.672Z,23.39
2022-08-05T05:43:57.549Z,23.53
2022-08-05T05:46:46.541Z,23.54
2022-08-05T05:49:34.027Z,23.54
2022-08-05T05:52:28.348Z,23.65
2022-08-05T05:55:18.711Z,23.70
2022-08-05T05:58:04.612Z,23.75
2022-08-05T06:00:50.549Z,23.80
2022-08-05T06:03:54.121Z,23.84
2022-08-05T06:06:47.781Z,23.95
2022-08-05T06:10:01.659Z,23.97
2022-08-05T06:12:42.282Z,24.04
2022-08-05T06:16:28.883Z,24.12
2022-08-05T06:18:36.490Z,24.19
2022-08-05T06:21:35.781Z,24.28
2022-08-05T06:24:25.922Z,24.39
2022-08-05T06:28:09.323Z,24.36
2022-08-05T06:30:21.374Z,24.54
2022-08-05T06:33:10.070Z,24.61
2022-08-05T06:36:07.160Z,24.72
2022-08-05T06:38:55.772Z,24.71
2022-08-05T06:41:41.836Z,24.87
2022-08-05T06:44:31.837Z,24.98
2022-08-05T06:47:29.989Z,25.11
2022-08-05T06:50:17.346Z,25.10
2022-08-05T06:53:19.491Z,25.25
2022-08-05T12:04:39.984Z,30.26
2022-08-05T12:08:10.384Z,30.47
2022-08-05T12:10:45.258Z,30.80
2022-08-05T12:13:48.519Z,31.15
2022-08-05T12:16:38.840Z,31.33
2022-08-05T12:20:27.656Z,31.47
2022-08-05T12:22:33.698Z,31.65
2022-08-05T12:25:19.527Z,31.81
2022-08-05T12:28:06.583Z,31.95
2022-08-05T12:30:52.612Z,32.02
2022-08-05T12:33:40.056Z,32.08
2022-08-05T12:36:29.398Z,32.19
2022-08-05T12:39:15.920Z,32.29
2022-08-05T12:42:02.711Z,32.54
2022-08-05T12:44:49.532Z,32.68
2022-08-05T12:47:37.024Z,32.73
2022-08-05T12:50:24.033Z,32.92
2022-08-05T12:53:16.849Z,33.11
2022-08-05T12:56:34.388Z,32.91
2022-08-05T12:59:27.761Z,33.35
2022-08-05T13:02:30.310Z,33.02
2022-08-05T13:05:16.715Z,33.37
2022-08-05T13:08:08.675Z,33.61
2022-08-05T13:11:00.256Z,33.73
2022-08-05T13:14:04.637Z,33.57
2022-08-05T13:16:56.921Z,33.78
2022-08-05T13:19:52.694Z,33.88
2022-08-05T13:22:43.569Z,33.93
2022-08-05T13:25:52.520Z,33.99
2022-08-05T13:28:40.930Z,33.99
2022-08-05T13:31:33.900Z,34.13
2022-08-05T13:34:36.042Z,34.28
2022-08-05T13:37:27.171Z,34.07
2022-08-05T13:40:35.530Z,34.31
2022-08-05T13:43:44.885Z,34.43
2022-08-05T13:46:50.941Z,34.51
2022-08-05T13:49:45.041Z,34.59
2022-08-05T13:52:32.254Z,34.58
2022-08-05T13:55:42.163Z,34.70
2022-08-05T13:58:30.342Z,34.76
2022-08-05T14:01:17.570Z,34.71
2022-08-05T14:04:22.433Z,35.06
2022-08-05T14:07:56.428Z,35.11
2022-08-05T14:10:28.553Z,35.29
2022-08-05T14:13:17.309Z,35.44
2022-08-05T14:16:11.621Z,35.72
2022-08-05T14:19:04.601Z,36.10
2022-08-05T14:22:08.794Z,36.45
2022-08-05T14:24:56.814Z,36.66
2022-08-05T14:27:47.584Z,37.00
2022-08-05T14:30:33.597Z,37.26
2022-08-05T14:33:23.292Z,37.40
2022-08-05T14:36:10.498Z,37.57
2022-08-05T14:38:57.084Z,37.61
2022-08-05T14:42:02.340Z,37.81
2022-08-05T14:44:50.488Z,38.04
2022-08-05T14:48:03.857Z,38.14
2022-08-05T14:50:42.866Z,38.30
2022-08-05T14:53:29.901Z,38.54
2022-08-05T14:56:22.651Z,38.77
2022-08-05T14:59:10.232Z,38.93
2022-08-05T15:01:56.911Z,39.01
2022-08-05T15:04:44.949Z,39.02
2022-08-05T15:08:06.481Z,39.03
2022-08-05T15:10:43.469Z,39.23
2022-08-05T15:13:45.061Z,39.19
2022-08-05T15:16:33.095Z,38.95
2022-08-05T15:19:23.711Z,39.17
2022-08-05T15:22:10.254Z,39.11
2022-08-05T15:24:59.136Z,39.16
2022-08-05T15:27:52.011Z,39.22
2022-08-05T15:30:38.971Z,39.05
2022-08-05T15:34:19.135Z,39.12
2022-08-05T15:36:32.153Z,39.13
2022-08-05T15:40:41.753Z,39.13
2022-08-05T15:42:28.686Z,39.08
2022-08-05T15:45:38.307Z,39.09
2022-08-05T15:48:25.875Z,38.95
2022-08-05T15:51:11.967Z,38.86
2022-08-05T15:53:58.042Z,38.73
2022-08-05T15:56:45.237Z,38.59
2022-08-05T15:59:32.210Z,38.45
2022-08-05T16:02:25.270Z,38.24
2022-08-05T16:05:11.942Z,38.08
2022-08-05T16:07:58.042Z,37.93
2022-08-05T16:10:44.037Z,37.73
2022-08-05T16:13:34.188Z,37.68
2022-08-05T16:16:25.170Z,37.55
2022-08-05T16:23:08.647Z,37.16
2022-08-05T16:26:11.372Z,37.00
2022-08-05T16:28:58.819Z,36.66
2022-08-05T16:31:56.736Z,36.66
2022-08-05T16:34:43.625Z,36.46
2022-08-05T16:38:15.604Z,36.37
2022-08-05T16:40:37.537Z,36.24
2022-08-05T16:43:25.526Z,36.15
2022-08-05T16:46:24.518Z,36.00
2022-08-05T16:49:12.546Z,35.80
2022-08-05T16:52:00.101Z,35.71
2022-08-05T16:54:49.119Z,35.68
2022-08-05T16:57:53.446Z,35.58
2022-08-05T17:00:42.193Z,35.23
2022-08-05T17:03:33.151Z,35.25
2022-08-05T17:06:19.901Z,35.14
2022-08-05T17:09:05.879Z,35.14
2022-08-05T17:11:55.982Z,34.98
2022-08-05T17:14:46.086Z,34.79
2022-08-05T17:17:42.674Z,34.77
2022-08-05T17:20:29.037Z,34.70
2022-08-05T17:24:03.043Z,34.63
2022-08-05T17:26:21.612Z,34.48
2022-08-05T17:29:10.314Z,34.45
2022-08-05T17:31:58.856Z,34.27
2022-08-05T17:34:48.143Z,34.25
2022-08-05T17:37:41.415Z,34.12
2022-08-05T17:40:31.497Z,34.00
2022-08-05T17:43:17.824Z,33.93
2022-08-05T17:46:23.971Z,33.85
2022-08-05T17:49:10.054Z,33.72
2022-08-05T17:51:56.165Z,33.63
2022-08-05T17:54:42.324Z,33.44
2022-08-05T17:57:28.838Z,33.45
2022-08-05T18:00:14.923Z,33.28
2022-08-05T18:03:00.934Z,33.17
2022-08-05T18:05:53.011Z,33.02
2022-08-05T18:08:44.528Z,33.01
2022-08-05T18:11:33.627Z,32.87
2022-08-05T18:14:20.466Z,32.80
2022-08-05T18:17:06.579Z,32.59
2022-08-05T18:20:14.085Z,32.32
2022-08-05T18:23:11.417Z,32.42
2022-08-05T18:25:59.529Z,32.30
2022-08-05T18:28:46.489Z,32.11
2022-08-05T18:31:35.453Z,32.12
2022-08-05T18:34:21.924Z,31.93
2022-08-05T18:37:12.224Z,31.80
2022-08-05T18:40:34.145Z,31.82
2022-08-05T18:43:05.412Z,31.71
2022-08-05T18:45:56.174Z,31.49
2022-08-05T18:48:42.256Z,31.50
2022-08-05T18:52:05.108Z,31.38
2022-08-05T18:54:52.872Z,31.16
2022-08-05T18:57:50.137Z,31.05
2022-08-05T19:00:39.357Z,31.00
2022-08-05T19:03:55.041Z,30.73
2022-08-05T19:06:44.604Z,30.69
2022-08-05T19:09:39.403Z,30.57
2022-08-05T19:12:27.393Z,30.40
2022-08-05T19:15:56.698Z,30.35
2022-08-05T19:18:22.248Z,30.27
2022-08-05T19:21:12.487Z,30.14
2022-08-05T19:24:12.934Z,30.07
2022-08-05T19:27:10.291Z,29.93
2022-08-05T19:30:07.655Z,29.76
2022-08-05T19:32:59.333Z,29.72
2022-08-05T19:35:56.504Z,29.65
2022-08-05T19:38:53.103Z,29.40
2022-08-05T19:42:07.618Z,29.38
2022-08-05T19:44:48.089Z,29.31
2022-08-05T19:47:38.076Z,29.14
2022-08-05T19:50:34.771Z,29.09
2022-08-05T19:54:04.866Z,29.10
2022-08-05T19:56:34.529Z,29.06
2022-08-05T20:00:00.314Z,28.96
2022-08-05T20:02:36.943Z,28.90
2022-08-05T20:05:24.909Z,28.86
2022-08-05T20:08:12.451Z,28.81
2022-08-05T20:11:03.591Z,28.72
2022-08-05T20:13:59.068Z,28.66
2022-08-05T20:17:04.046Z,28.57
2022-08-05T20:19:56.697Z,28.53
2022-08-05T20:22:44.185Z,28.44
2022-08-05T20:25:52.265Z,28.34
2022-08-05T20:29:05.615Z,28.26
2022-08-05T20:32:00.356Z,28.19
2022-08-05T20:34:53.580Z,28.12
2022-08-05T20:38:06.405Z,28.12
2022-08-05T20:40:47.640Z,28.01
2022-08-05T20:43:59.132Z,27.81
2022-08-05T20:46:43.150Z,27.87
2022-08-05T20:49:29.404Z,27.65
2022-08-05T20:52:15.642Z,27.73
2022-08-05T20:56:07.241Z,27.59
2022-08-05T20:58:07.970Z,27.47
2022-08-05T21:00:56.865Z,27.53
2022-08-05T21:03:47.936Z,27.43
2022-08-05T21:06:34.086Z,27.42
2022-08-05T21:09:20.512Z,27.25
2022-08-05T21:12:11.719Z,27.28
2022-08-05T21:14:58.185Z,27.20
2022-08-05T21:17:45.705Z,27.08
2022-08-05T21:20:34.171Z,27.13
2022-08-05T21:23:20.471Z,26.97
2022-08-05T21:26:14.334Z,26.92
2022-08-05T21:29:03.518Z,26.90
2022-08-05T21:31:50.971Z,26.80
2022-08-05T21:34:38.029Z,26.83
2022-08-05T21:37:24.151Z,26.76
2022-08-05T21:40:14.073Z,26.70
2022-08-05T21:42:59.938Z,26.69
2022-08-05T21:45:56.932Z,26.60
2022-08-05T21:48:46.043Z,26.62
2022-08-05T21:52:22.404Z,26.58
2022-08-05T21:54:40.450Z,26.57
2022-08-05T21:57:31.374Z,26.51
2022-08-05T22:00:18.626Z,26.48
2022-08-05T22:03:05.062Z,26.43
2022-08-05T22:05:51.549Z,26.43
2022-08-05T22:08:42.582Z,26.39
2022-08-05T22:11:34.734Z,26.38
2022-08-05T22:14:35.011Z,26.39
2022-08-05T22:17:24.010Z,26.30
2022-08-05T22:20:14.919Z,26.29
2022-08-05T22:23:21.842Z,26.28
2022-08-05T22:26:26.351Z,26.24
2022-08-05T22:29:12.476Z,26.15
2022-08-05T22:32:02.962Z,26.18
2022-08-05T22:34:49.491Z,26.17
2022-08-05T22:37:58.819Z,26.17
2022-08-05T22:40:42.279Z,26.12
2022-08-05T22:43:37.983Z,26.02
2022-08-05T22:46:25.857Z,26.07
2022-08-05T22:50:17.072Z,26.04
2022-08-05T22:52:30.178Z,26.02
2022-08-05T22:55:21.345Z,25.89
2022-08-05T22:58:07.365Z,25.89
2022-08-05T23:00:57.777Z,25.86
2022-08-05T23:03:58.490Z,25.92
2022-08-05T23:06:45.740Z,25.73
2022-08-05T23:09:53.464Z,25.79
2022-08-05T23:12:40.792Z,25.75
2022-08-05T23:15:35.122Z,25.69
2022-08-05T23:18:22.925Z,25.65
2022-08-05T23:21:10.245Z,25.66
2022-08-05T23:23:56.352Z,25.66
2022-08-05T23:26:42.310Z,25.53
2022-08-05T23:29:34.499Z,25.57
2022-08-05T23:32:22.801Z,25.42
2022-08-05T23:35:09.416Z,25.39
2022-08-05T23:37:55.409Z,25.46
2022-08-05T23:40:42.267Z,25.39
2022-08-05T23:44:04.718Z,25.36
2022-08-05T23:46:41.685Z,25.29
2022-08-05T23:49:35.919Z,25.18
2022-08-05T23:52:32.683Z,25.14
2022-08-05T23:55:22.068Z,25.18
2022-08-05T23:58:31.315Z,25.13
